createdAt,value
2023-02-19T00:01:17.314Z,4.55
2023-02-19T00:04:25.687Z,3.95
2023-02-19T00:07:35.952Z,3.40
2023-02-19T00:10:40.842Z,3.90
2023-02-19T00:13:47.816Z,3.83
2023-02-19T00:16:52.814Z,3.58
2023-02-19T00:20:00.956Z,3.92
2023-02-19T00:23:06.667Z,4.07
2023-02-19T00:26:18.567Z,3.72
2023-02-19T00:29:25.459Z,4.05
2023-02-19T00:32:32.410Z,4.50
2023-02-19T00:35:40.383Z,3.80
2023-02-19T00:38:46.331Z,3.13
2023-02-19T00:41:51.575Z,3.83
2023-02-19T00:44:58.666Z,3.45
2023-02-19T00:48:05.993Z,2.75
2023-02-19T00:51:14.442Z,3.05
2023-02-19T00:54:19.558Z,3.53
2023-02-19T00:57:26.414Z,3.83
2023-02-19T01:00:31.431Z,3.92
2023-02-19T01:03:37.418Z,3.75
2023-02-19T01:06:45.815Z,3.30
2023-02-19T01:09:52.371Z,3.22
2023-02-19T01:12:57.480Z,3.13
2023-02-19T01:16:06.157Z,3.03
2023-02-19T01:19:11.459Z,3.50
2023-02-19T01:22:19.773Z,2.95
2023-02-19T01:25:25.108Z,1.90
2023-02-19T01:28:30.489Z,2.40
2023-02-19T01:31:35.775Z,2.15
2023-02-19T01:34:41.095Z,2.65
2023-02-19T01:37:49.724Z,2.45
2023-02-19T01:40:58.309Z,2.60
2023-02-19T01:44:04.349Z,2.63
2023-02-19T01:47:09.900Z,3.03
2023-02-19T01:50:14.909Z,1.70
2023-02-19T01:53:26.094Z,2.20
2023-02-19T01:56:33.919Z,2.33
2023-02-19T01:59:39.700Z,2.65
2023-02-19T02:02:45.844Z,1.45
2023-02-19T02:05:56.558Z,2.42
2023-02-19T02:09:16.468Z,1.52
2023-02-19T02:12:21.797Z,2.28
2023-02-19T02:15:27.712Z,2.20
2023-02-19T02:18:42.706Z,2.25
2023-02-19T02:21:59.347Z,1.80
2023-02-19T02:25:31.993Z,2.17
2023-02-19T02:28:46.977Z,1.23
2023-02-19T02:31:58.355Z,2.30
2023-02-19T02:35:05.924Z,1.90
2023-02-19T02:38:13.679Z,1.38
2023-02-19T02:41:19.074Z,1.95
2023-02-19T02:44:25.539Z,1.40
2023-02-19T02:47:45.419Z,1.33
2023-02-19T02:50:53.179Z,1.63
2023-02-19T02:54:24.363Z,1.60
2023-02-19T02:57:29.752Z,1.98
2023-02-19T03:01:00.967Z,2.38
2023-02-19T03:04:09.335Z,1.70
2023-02-19T03:07:14.835Z,1.80
2023-02-19T03:10:23.595Z,1.60
2023-02-19T03:13:42.825Z,1.80
2023-02-19T03:17:01.642Z,2.00
2023-02-19T03:20:12.224Z,1.83
2023-02-19T03:23:18.189Z,1.67
2023-02-19T03:26:21.229Z,1.65
2023-02-19T03:29:29.990Z,2.28
2023-02-19T03:32:37.341Z,2.05
2023-02-19T03:35:48.336Z,1.80
2023-02-19T03:38:56.412Z,1.60
2023-02-19T03:42:04.420Z,1.65
2023-02-19T03:45:21.779Z,1.85
2023-02-19T03:48:33.326Z,2.30
2023-02-19T03:51:43.260Z,1.90
2023-02-19T03:54:54.692Z,2.00
2023-02-19T03:58:01.907Z,1.90
2023-02-19T04:01:09.486Z,1.73
2023-02-19T04:04:19.500Z,1.45
2023-02-19T04:07:29.893Z,1.00
2023-02-19T04:10:35.548Z,1.63
2023-02-19T04:13:44.534Z,1.60
2023-02-19T04:16:55.841Z,1.33
2023-02-19T04:20:02.184Z,1.40
2023-02-19T04:23:10.960Z,1.73
2023-02-19T04:26:17.811Z,1.85
2023-02-19T04:29:23.158Z,1.60
2023-02-19T04:32:28.771Z,1.48
2023-02-19T04:35:34.220Z,1.88
2023-02-19T04:38:43.296Z,1.65
2023-02-19T04:41:49.716Z,1.60
2023-02-19T04:44:55.017Z,1.23
2023-02-19T04:48:02.132Z,1.40
2023-02-19T04:51:08.901Z,2.30
2023-02-19T04:54:16.663Z,1.30
2023-02-19T04:57:22.470Z,1.60
2023-02-19T05:00:27.464Z,2.03
2023-02-19T05:03:33.155Z,2.15
2023-02-19T05:06:38.260Z,1.70
2023-02-19T05:09:46.495Z,1.02
2023-02-19T05:12:52.138Z,1.30
2023-02-19T05:15:58.190Z,1.92
2023-02-19T05:19:03.044Z,2.40
2023-02-19T05:22:09.368Z,1.95
2023-02-19T05:25:16.797Z,1.25
2023-02-19T05:28:28.997Z,1.70
2023-02-19T05:31:34.123Z,1.60
2023-02-19T05:34:39.944Z,2.15
2023-02-19T05:37:45.032Z,1.67
2023-02-19T05:40:53.206Z,1.65
2023-02-19T05:43:58.950Z,1.55
2023-02-19T05:47:04.531Z,1.73
2023-02-19T05:50:09.989Z,2.05
2023-02-19T05:53:15.386Z,1.30
2023-02-19T05:56:27.237Z,1.40
2023-02-19T05:59:36.118Z,1.98
2023-02-19T06:02:43.501Z,1.77
2023-02-19T06:05:48.959Z,1.55
2023-02-19T06:08:54.450Z,1.63
2023-02-19T06:12:02.412Z,2.42
2023-02-19T06:15:07.896Z,1.50
2023-02-19T06:18:13.333Z,1.52
2023-02-19T06:21:18.688Z,1.95
2023-02-19T06:24:24.355Z,1.48
2023-02-19T06:27:32.177Z,2.25
2023-02-19T06:30:37.442Z,2.00
2023-02-19T06:33:42.983Z,2.08
2023-02-19T06:36:50.658Z,2.08
2023-02-19T06:39:56.279Z,2.08
2023-02-19T06:43:04.508Z,1.58
2023-02-19T06:46:09.973Z,2.17
2023-02-19T06:49:15.838Z,1.60
2023-02-19T06:52:20.778Z,1.40
2023-02-19T06:55:26.343Z,1.73
2023-02-19T06:58:34.780Z,2.22
2023-02-19T07:01:40.764Z,3.03
2023-02-19T07:04:45.911Z,1.92
2023-02-19T07:07:57.250Z,2.10
2023-02-19T07:11:02.734Z,1.50
2023-02-19T07:14:11.409Z,2.15
2023-02-19T07:17:16.506Z,1.90
2023-02-19T07:20:23.894Z,1.30
2023-02-19T07:23:28.735Z,1.15
2023-02-19T07:26:36.465Z,1.70
2023-02-19T07:29:44.293Z,2.50
2023-02-19T07:32:52.250Z,1.20
2023-02-19T07:35:57.130Z,1.75
2023-02-19T07:39:02.733Z,1.65
2023-02-19T07:42:08.024Z,1.85
2023-02-19T07:45:16.300Z,1.75
2023-02-19T07:48:21.480Z,2.92
2023-02-19T07:51:28.121Z,1.85
2023-02-19T07:54:34.148Z,2.88
2023-02-19T07:57:40.105Z,2.20
2023-02-19T08:00:48.247Z,1.65
2023-02-19T08:03:51.201Z,2.08
2023-02-19T08:06:56.080Z,1.23
2023-02-19T08:10:24.939Z,1.75
2023-02-19T08:13:28.302Z,1.58
2023-02-19T08:16:43.061Z,1.13
2023-02-19T08:19:48.368Z,1.02
2023-02-19T08:22:54.561Z,1.30
2023-02-19T08:26:01.044Z,1.63
2023-02-19T08:29:07.889Z,2.17
2023-02-19T08:32:15.967Z,1.00
2023-02-19T08:35:22.302Z,2.50
2023-02-19T08:38:27.204Z,1.13
2023-02-19T08:41:33.832Z,1.10
2023-02-19T08:44:39.005Z,1.20
2023-02-19T08:47:48.724Z,1.77
2023-02-19T08:50:56.956Z,1.05
2023-02-19T08:54:06.380Z,2.20
2023-02-19T08:57:11.508Z,1.35
2023-02-19T09:00:17.851Z,1.42
2023-02-19T09:03:25.311Z,1.50
2023-02-19T09:06:30.800Z,1.52
2023-02-19T09:09:35.910Z,1.63
2023-02-19T09:12:41.528Z,1.17
2023-02-19T09:15:46.756Z,1.60
2023-02-19T09:18:54.557Z,1.30
2023-02-19T09:22:09.388Z,1.00
2023-02-19T09:28:42.712Z,1.15
2023-02-19T09:31:48.539Z,1.67
2023-02-19T09:34:56.042Z,1.05
2023-02-19T09:38:02.154Z,1.38
2023-02-19T09:41:10.007Z,0.90
2023-02-19T09:44:17.049Z,0.90
2023-02-19T09:47:22.944Z,1.17
2023-02-19T09:50:35.616Z,1.80
2023-02-19T09:53:43.645Z,1.25
2023-02-19T09:56:48.963Z,1.00
2023-02-19T09:59:54.934Z,1.00
2023-02-19T10:03:06.155Z,1.10
2023-02-19T10:06:17.812Z,1.00
2023-02-19T10:09:26.930Z,1.00
2023-02-19T10:12:32.523Z,1.02
2023-02-19T10:15:41.158Z,0.90
2023-02-19T10:18:47.449Z,1.98
2023-02-19T10:21:56.863Z,1.52
2023-02-19T10:25:01.807Z,1.25
2023-02-19T10:28:07.504Z,0.82
2023-02-19T10:31:20.699Z,2.58
2023-02-19T10:34:28.800Z,0.90
2023-02-19T10:37:36.852Z,0.93
2023-02-19T10:40:46.951Z,0.80
2023-02-19T10:43:55.699Z,1.05
2023-02-19T10:47:02.406Z,1.20
2023-02-19T10:50:08.948Z,1.92
2023-02-19T10:53:23.950Z,0.90
2023-02-19T10:56:33.750Z,1.10
2023-02-19T10:59:38.999Z,1.25
2023-02-19T11:02:44.273Z,2.42
2023-02-19T11:05:56.942Z,1.85
2023-02-19T11:09:05.101Z,1.75
2023-02-19T11:12:11.275Z,1.20
2023-02-19T11:15:23.481Z,1.00
2023-02-19T11:18:30.522Z,1.60
2023-02-19T11:21:35.929Z,2.65
2023-02-19T11:24:43.816Z,1.58
2023-02-19T11:27:56.587Z,1.00
2023-02-19T11:31:16.807Z,0.80
2023-02-19T11:34:30.257Z,1.10
2023-02-19T11:37:36.958Z,1.30
2023-02-19T11:40:47.611Z,1.50
2023-02-19T11:44:00.181Z,1.52
2023-02-19T11:47:11.595Z,2.40
2023-02-19T11:50:21.846Z,4.80
2023-02-19T11:53:29.317Z,1.88
2023-02-19T11:56:39.363Z,2.08
2023-02-19T11:59:49.707Z,7.25
2023-02-19T12:03:03.908Z,1.58
2023-02-19T12:06:16.124Z,0.80
2023-02-19T12:09:26.732Z,0.95
2023-02-19T12:12:39.566Z,1.55
2023-02-19T12:15:51.598Z,1.35
2023-02-19T12:19:06.354Z,1.48
2023-02-19T12:22:30.459Z,1.38
2023-02-19T12:25:49.796Z,1.00
2023-02-19T12:29:18.210Z,0.80
2023-02-19T12:32:38.060Z,0.85
2023-02-19T12:35:50.156Z,1.45
2023-02-19T12:39:01.316Z,1.80
2023-02-19T12:42:11.673Z,2.80
2023-02-19T12:45:24.096Z,1.20
2023-02-19T12:48:33.365Z,1.08
2023-02-19T12:51:41.440Z,1.10
2023-02-19T12:54:48.711Z,2.00
2023-02-19T12:57:54.427Z,1.50
2023-02-19T13:01:02.678Z,1.05
2023-02-19T13:04:26.990Z,1.27
2023-02-19T13:07:36.315Z,1.10
2023-02-19T13:10:44.345Z,1.00
2023-02-19T13:13:52.651Z,0.80
2023-02-19T13:17:03.404Z,1.20
2023-02-19T13:20:16.610Z,1.23
2023-02-19T13:23:49.693Z,0.68
2023-02-19T13:27:03.800Z,0.90
2023-02-19T13:30:23.879Z,1.20
2023-02-19T13:33:45.554Z,1.00
2023-02-19T13:36:51.336Z,1.00
2023-02-19T13:39:57.563Z,0.95
2023-02-19T13:43:04.833Z,1.05
2023-02-19T13:46:11.410Z,1.25
2023-02-19T13:49:40.255Z,1.27
2023-02-19T13:52:46.747Z,1.25
2023-02-19T13:55:55.775Z,1.50
2023-02-19T13:59:01.748Z,2.30
2023-02-19T14:02:16.090Z,1.25
2023-02-19T14:05:47.045Z,1.30
2023-02-19T14:08:56.260Z,0.98
2023-02-19T14:12:05.748Z,1.70
2023-02-19T14:15:25.675Z,0.90
2023-02-19T14:18:44.801Z,2.35
2023-02-19T14:21:54.254Z,1.35
2023-02-19T14:25:01.209Z,1.35
2023-02-19T14:28:07.431Z,1.48
2023-02-19T14:31:19.026Z,1.30
2023-02-19T14:34:27.397Z,1.00
2023-02-19T14:37:35.499Z,1.30
2023-02-19T14:40:42.501Z,1.00
2023-02-19T14:43:48.324Z,1.15
2023-02-19T14:46:59.652Z,1.02
2023-02-19T14:50:06.269Z,1.00
2023-02-19T14:53:18.629Z,1.17
2023-02-19T14:56:28.264Z,1.38
2023-02-19T14:59:35.417Z,0.98
2023-02-19T15:02:47.630Z,1.20
2023-02-19T15:05:56.930Z,1.45
2023-02-19T15:09:06.462Z,1.25
2023-02-19T15:12:18.318Z,0.75
2023-02-19T15:15:25.094Z,1.67
2023-02-19T15:18:30.578Z,1.70
2023-02-19T15:21:37.166Z,1.65
2023-02-19T15:24:48.577Z,1.25
2023-02-19T15:27:54.251Z,1.15
2023-02-19T15:31:08.074Z,0.90
2023-02-19T15:34:18.580Z,1.05
2023-02-19T15:37:24.837Z,1.63
2023-02-19T15:40:34.701Z,1.45
2023-02-19T15:43:45.674Z,1.63
2023-02-19T15:46:51.420Z,2.40
2023-02-19T15:49:59.565Z,1.15
2023-02-19T15:53:09.302Z,6.60
2023-02-19T15:56:21.938Z,1.83
2023-02-19T15:59:31.472Z,1.27
2023-02-19T16:02:36.688Z,2.30
2023-02-19T16:05:42.059Z,1.48
2023-02-19T16:08:49.547Z,1.23
2023-02-19T16:12:00.933Z,1.05
2023-02-19T16:15:14.947Z,0.80
2023-02-19T16:18:20.568Z,1.15
2023-02-19T16:21:33.138Z,0.80
2023-02-19T16:24:49.532Z,1.55
2023-02-19T16:27:58.207Z,1.27
2023-02-19T16:31:08.030Z,1.77
2023-02-19T16:34:19.126Z,0.98
2023-02-19T16:37:35.155Z,1.00
2023-02-19T16:41:03.855Z,1.10
2023-02-19T16:44:36.033Z,0.90
2023-02-19T16:47:45.446Z,1.05
2023-02-19T16:50:50.857Z,0.85
2023-02-19T16:53:55.884Z,1.00
2023-02-19T16:57:01.635Z,0.73
2023-02-19T17:00:18.554Z,0.90
2023-02-19T17:03:25.678Z,1.27
2023-02-19T17:06:33.192Z,1.30
2023-02-19T17:09:38.575Z,0.88
2023-02-19T17:12:43.486Z,0.60
2023-02-19T17:15:53.526Z,0.88
2023-02-19T17:18:59.090Z,1.25
2023-02-19T17:22:05.072Z,0.82
2023-02-19T17:25:10.332Z,1.05
2023-02-19T17:28:15.941Z,1.08
2023-02-19T17:31:23.697Z,1.30
2023-02-19T17:34:30.189Z,1.55
2023-02-19T17:37:35.468Z,1.17
2023-02-19T17:40:41.671Z,0.80
2023-02-19T17:43:48.088Z,0.95
2023-02-19T17:46:56.447Z,1.23
2023-02-19T17:50:01.657Z,2.88
2023-02-19T17:53:07.355Z,0.70
2023-02-19T17:56:12.799Z,1.50
2023-02-19T17:59:18.429Z,1.35
2023-02-19T18:02:25.994Z,1.15
2023-02-19T18:05:31.829Z,0.98
2023-02-19T18:08:37.946Z,1.65
2023-02-19T18:11:47.028Z,1.20
2023-02-19T18:14:54.824Z,1.10
2023-02-19T18:18:05.179Z,0.60
2023-02-19T18:21:11.411Z,0.98
2023-02-19T18:24:17.128Z,0.70
2023-02-19T18:27:23.928Z,0.82
2023-02-19T18:30:30.116Z,1.02
2023-02-19T18:33:38.665Z,1.67
2023-02-19T18:36:47.586Z,1.55
2023-02-19T18:39:52.487Z,0.70
2023-02-19T18:42:58.942Z,1.10
2023-02-19T18:46:03.815Z,0.90
2023-02-19T18:49:14.088Z,0.90
2023-02-19T18:52:20.481Z,1.23
2023-02-19T18:55:27.162Z,0.60
2023-02-19T18:58:33.408Z,0.90
2023-02-19T19:01:40.687Z,0.80
2023-02-19T19:04:51.254Z,0.55
2023-02-19T19:07:59.519Z,0.73
2023-02-19T19:11:04.547Z,1.00
2023-02-19T19:14:10.076Z,0.63
2023-02-19T19:17:15.212Z,0.90
2023-02-19T19:20:24.747Z,0.90
2023-02-19T19:23:30.596Z,0.88
2023-02-19T19:26:36.562Z,0.70
2023-02-19T19:29:44.431Z,1.27
2023-02-19T19:32:54.022Z,0.60
2023-02-19T19:36:02.238Z,1.02
2023-02-19T19:39:07.571Z,1.13
2023-02-19T19:42:12.720Z,0.88
2023-02-19T19:45:18.272Z,0.90
2023-02-19T19:48:23.341Z,1.05
2023-02-19T19:51:36.432Z,1.67
2023-02-19T19:54:43.895Z,1.05
2023-02-19T19:57:50.051Z,0.93
2023-02-19T20:00:55.032Z,0.98
2023-02-19T20:04:01.471Z,1.00
2023-02-19T20:07:10.011Z,0.65
2023-02-19T20:10:16.460Z,0.55
2023-02-19T20:13:24.685Z,1.40
2023-02-19T20:16:30.784Z,0.80
2023-02-19T20:19:36.758Z,0.80
2023-02-19T20:22:47.523Z,0.80
2023-02-19T20:25:52.325Z,0.70
2023-02-19T20:28:57.993Z,0.47
2023-02-19T20:32:03.992Z,1.52
2023-02-19T20:35:10.994Z,1.08
2023-02-19T20:38:19.993Z,0.80
2023-02-19T20:41:26.005Z,1.00
2023-02-19T20:44:31.306Z,0.80
2023-02-19T20:47:38.129Z,0.80
2023-02-19T20:50:43.042Z,1.00
2023-02-19T20:53:51.296Z,0.90
2023-02-19T20:56:57.004Z,0.60
2023-02-19T21:00:03.847Z,0.68
2023-02-19T21:03:09.202Z,0.57
2023-02-19T21:06:15.422Z,0.90
2023-02-19T21:09:23.320Z,0.55
2023-02-19T21:12:29.378Z,1.05
2023-02-19T21:15:34.638Z,0.73
2023-02-19T21:18:39.989Z,0.50
2023-02-19T21:21:45.400Z,0.93
2023-02-19T21:24:55.762Z,0.73
2023-02-19T21:28:00.704Z,0.73
2023-02-19T21:31:10.202Z,1.02
2023-02-19T21:34:15.790Z,1.02
2023-02-19T21:37:21.345Z,0.73
2023-02-19T21:40:30.155Z,0.68
2023-02-19T21:43:35.623Z,0.95
2023-02-19T21:46:40.482Z,1.25
2023-02-19T21:49:46.017Z,0.88
2023-02-19T21:52:51.547Z,1.15
2023-02-19T21:56:00.940Z,1.27
2023-02-19T21:59:06.113Z,0.90
2023-02-19T22:02:12.506Z,0.70
2023-02-19T22:05:17.675Z,0.60
2023-02-19T22:08:23.320Z,0.52
2023-02-19T22:11:31.834Z,0.57
2023-02-19T22:14:40.379Z,0.90
2023-02-19T22:17:46.007Z,0.70
2023-02-19T22:20:51.313Z,0.80
2023-02-19T22:23:59.321Z,0.82
2023-02-19T22:27:07.868Z,1.00
2023-02-19T22:30:13.242Z,0.82
2023-02-19T22:33:18.706Z,1.35
2023-02-19T22:36:24.741Z,1.00
2023-02-19T22:39:30.277Z,0.80
2023-02-19T22:42:38.148Z,0.70
2023-02-19T22:45:43.705Z,0.98
2023-02-19T22:48:50.288Z,1.00
2023-02-19T22:51:58.155Z,1.08
2023-02-19T22:55:04.066Z,0.50
2023-02-19T22:58:12.398Z,0.75
2023-02-19T23:01:17.694Z,0.75
2023-02-19T23:04:23.973Z,0.70
2023-02-19T23:07:29.164Z,0.70
2023-02-19T23:10:34.571Z,0.82
2023-02-19T23:13:43.511Z,0.75
2023-02-19T23:16:49.674Z,0.55
2023-02-19T23:19:54.907Z,1.42
2023-02-19T23:23:00.691Z,1.25
2023-02-19T23:26:05.734Z,1.10
2023-02-19T23:29:14.033Z,1.08
2023-02-19T23:32:21.082Z,0.88
2023-02-19T23:35:29.052Z,0.60
2023-02-19T23:38:34.075Z,0.98
2023-02-19T23:41:39.586Z,1.27
2023-02-19T23:44:48.864Z,1.52
2023-02-19T23:47:55.272Z,1.33
2023-02-19T23:51:01.470Z,0.88
2023-02-19T23:54:07.100Z,0.77
2023-02-19T23:57:12.903Z,1.10
